createdAt,value
2024-05-09T00:01:50.463Z,6.53
2024-05-09T00:06:52.316Z,4.10
2024-05-09T00:11:54.199Z,3.83
2024-05-09T00:16:56.072Z,3.42
2024-05-09T00:21:57.880Z,3.10
2024-05-09T00:26:59.648Z,3.40
2024-05-09T00:32:01.575Z,4.32
2024-05-09T00:37:03.557Z,3.28
2024-05-09T00:42:05.354Z,7.85
2024-05-09T00:47:08.226Z,4.38
2024-05-09T00:52:10.575Z,5.60
2024-05-09T00:57:12.430Z,3.72
2024-05-09T01:02:15.563Z,3.55
2024-05-09T01:07:17.359Z,3.38
2024-05-09T01:12:19.238Z,3.53
2024-05-09T01:17:21.360Z,3.55
2024-05-09T01:22:23.768Z,3.72
2024-05-09T01:27:25.592Z,2.70
2024-05-09T01:32:27.519Z,3.08
2024-05-09T01:37:29.439Z,3.40
2024-05-09T01:42:31.357Z,4.43
2024-05-09T01:47:33.298Z,6.10
2024-05-09T01:52:38.767Z,3.22
2024-05-09T01:57:40.520Z,5.47
2024-05-09T02:02:46.447Z,3.35
2024-05-09T02:07:48.355Z,3.83
2024-05-09T02:12:50.133Z,4.70
2024-05-09T02:17:52.070Z,3.25
2024-05-09T02:22:54.011Z,3.28
2024-05-09T02:27:55.801Z,3.28
2024-05-09T02:32:57.709Z,3.88
2024-05-09T02:37:59.871Z,4.13
2024-05-09T02:43:01.837Z,5.25
2024-05-09T02:48:04.173Z,4.72
2024-05-09T02:53:07.230Z,4.22
2024-05-09T02:58:09.879Z,4.45
2024-05-09T03:03:14.252Z,3.30
2024-05-09T03:08:17.418Z,3.10
2024-05-09T03:13:19.447Z,3.47
2024-05-09T03:18:21.378Z,3.40
2024-05-09T03:23:23.517Z,5.18
2024-05-09T03:28:25.330Z,6.15
2024-05-09T03:33:27.352Z,3.70
2024-05-09T03:38:29.282Z,4.80
2024-05-09T03:43:31.105Z,4.57
2024-05-09T03:48:35.759Z,4.80
2024-05-09T03:53:37.659Z,5.35
2024-05-09T03:58:39.482Z,5.05
2024-05-09T04:03:41.515Z,5.40
2024-05-09T04:08:43.370Z,4.70
2024-05-09T04:13:45.265Z,4.13
2024-05-09T04:18:47.183Z,4.20
2024-05-09T04:23:49.014Z,4.85
2024-05-09T04:28:50.921Z,5.00
2024-05-09T04:33:53.035Z,4.80
2024-05-09T04:38:54.873Z,8.07
2024-05-09T04:43:56.719Z,4.40
2024-05-09T04:48:58.595Z,4.70
2024-05-09T04:54:00.348Z,6.75
2024-05-09T04:59:02.128Z,7.45
2024-05-09T05:04:04.047Z,4.30
2024-05-09T05:09:05.993Z,5.25
2024-05-09T05:14:07.805Z,5.43
2024-05-09T05:19:12.027Z,5.63
2024-05-09T05:24:15.212Z,5.22
2024-05-09T05:29:20.207Z,6.00
2024-05-09T05:34:22.483Z,4.43
2024-05-09T05:39:24.334Z,4.30
2024-05-09T05:44:26.304Z,5.93
2024-05-09T05:49:28.302Z,7.65
2024-05-09T05:54:30.129Z,4.50
2024-05-09T05:59:32.053Z,4.28
2024-05-09T06:04:34.032Z,5.65
2024-05-09T06:09:35.848Z,5.00
2024-05-09T06:14:37.768Z,5.18
2024-05-09T06:19:39.723Z,4.25
2024-05-09T06:24:41.563Z,4.07
2024-05-09T06:29:43.360Z,5.00
2024-05-09T06:34:46.875Z,4.38
2024-05-09T06:39:48.767Z,4.82
2024-05-09T06:44:50.678Z,6.13
2024-05-09T06:49:53.396Z,4.93
2024-05-09T06:54:55.161Z,4.30
2024-05-09T07:00:00.909Z,4.30
2024-05-09T07:05:03.166Z,4.68
2024-05-09T07:10:07.782Z,4.78
2024-05-09T07:15:11.908Z,4.93
2024-05-09T07:20:23.100Z,4.28
2024-05-09T07:25:29.884Z,4.93
2024-05-09T07:30:34.378Z,3.85
2024-05-09T07:35:37.092Z,3.78
2024-05-09T07:40:40.419Z,3.85
2024-05-09T07:45:51.133Z,3.97
2024-05-09T07:52:39.204Z,4.05
2024-05-09T07:56:19.130Z,3.70
2024-05-09T08:01:25.865Z,8.90
2024-05-09T08:06:28.110Z,5.13
2024-05-09T08:11:32.191Z,5.72
2024-05-09T08:16:34.143Z,3.88
2024-05-09T08:21:36.343Z,4.43
2024-05-09T08:26:38.710Z,3.75
2024-05-09T08:31:40.518Z,5.53
2024-05-09T08:36:42.442Z,4.20
2024-05-09T08:41:49.712Z,5.68
2024-05-09T08:46:51.839Z,3.10
2024-05-09T08:51:53.671Z,4.82
2024-05-09T08:56:56.366Z,3.28
2024-05-09T09:01:59.135Z,3.28
2024-05-09T09:07:03.369Z,2.65
2024-05-09T09:12:06.720Z,2.22
2024-05-09T09:17:16.258Z,6.57
2024-05-09T09:22:19.834Z,2.50
2024-05-09T09:27:22.265Z,4.63
2024-05-09T09:32:28.495Z,4.57
2024-05-09T09:37:30.566Z,2.75
2024-05-09T09:42:35.321Z,2.75
2024-05-09T09:47:39.930Z,4.57
2024-05-09T09:52:42.021Z,2.40
2024-05-09T09:57:48.793Z,2.90
2024-05-09T10:02:50.671Z,3.00
2024-05-09T10:07:53.094Z,2.92
2024-05-09T10:13:05.093Z,3.45
2024-05-09T10:18:07.443Z,3.10
2024-05-09T10:23:29.599Z,4.45
2024-05-09T10:28:33.312Z,3.40
2024-05-09T10:33:54.552Z,5.07
2024-05-09T10:38:56.571Z,2.28
2024-05-09T10:43:58.355Z,2.42
2024-05-09T10:49:03.339Z,3.40
2024-05-09T10:54:07.801Z,2.42
2024-05-09T10:59:09.619Z,5.95
2024-05-09T11:04:11.578Z,3.95
2024-05-09T11:09:13.550Z,4.43
2024-05-09T11:14:15.416Z,2.38
2024-05-09T11:19:19.750Z,2.35
2024-05-09T11:24:22.826Z,3.17
2024-05-09T11:29:39.832Z,2.75
2024-05-09T11:34:42.403Z,4.65
2024-05-09T11:39:44.414Z,3.67
2024-05-09T11:44:46.257Z,2.60
2024-05-09T11:49:48.369Z,3.53
2024-05-09T11:54:50.308Z,4.90
2024-05-09T11:59:52.125Z,3.97
2024-05-09T12:04:54.048Z,7.40
2024-05-09T12:09:55.945Z,4.80
2024-05-09T12:14:57.707Z,2.22
2024-05-09T12:19:59.610Z,2.45
2024-05-09T12:25:04.755Z,3.47
2024-05-09T12:30:11.264Z,4.18
2024-05-09T12:35:14.320Z,7.55
2024-05-09T12:40:23.154Z,3.17
2024-05-09T12:45:33.477Z,3.85
2024-05-09T12:50:35.944Z,4.47
2024-05-09T12:55:44.980Z,3.83
2024-05-09T13:00:55.142Z,2.88
2024-05-09T13:05:56.990Z,3.78
2024-05-09T13:10:58.850Z,4.70
2024-05-09T13:16:00.811Z,2.58
2024-05-09T13:21:02.597Z,5.75
2024-05-09T13:26:04.682Z,2.38
2024-05-09T13:31:06.487Z,2.40
2024-05-09T13:36:08.340Z,3.17
2024-05-09T13:41:11.599Z,2.53
2024-05-09T13:46:13.483Z,6.43
2024-05-09T13:51:15.303Z,4.22
2024-05-09T13:56:17.082Z,3.45
2024-05-09T14:01:18.989Z,3.05
2024-05-09T14:06:21.128Z,2.63
2024-05-09T14:11:23.155Z,2.50
2024-05-09T14:16:25.218Z,2.47
2024-05-09T14:21:27.084Z,2.33
2024-05-09T14:26:28.911Z,2.60
2024-05-09T14:31:30.692Z,3.47
2024-05-09T14:36:33.334Z,2.83
2024-05-09T14:41:35.163Z,2.42
2024-05-09T14:46:37.076Z,4.47
2024-05-09T14:51:40.071Z,4.47
2024-05-09T14:56:41.980Z,6.35
2024-05-09T15:01:43.763Z,2.45
2024-05-09T15:06:48.174Z,2.25
2024-05-09T15:11:50.169Z,3.60
2024-05-09T15:16:52.177Z,3.33
2024-05-09T15:21:54.009Z,2.40
2024-05-09T15:26:55.894Z,2.97
2024-05-09T15:31:57.716Z,2.03
2024-05-09T15:36:59.826Z,3.47
2024-05-09T15:42:02.773Z,4.72
2024-05-09T15:47:04.602Z,2.30
2024-05-09T15:52:06.631Z,3.00
2024-05-09T15:57:08.559Z,2.53
2024-05-09T16:02:11.564Z,2.40
2024-05-09T16:07:13.627Z,2.80
2024-05-09T16:12:15.456Z,2.42
2024-05-09T16:17:17.363Z,2.40
2024-05-09T16:22:19.252Z,3.80
2024-05-09T16:27:22.170Z,2.90
2024-05-09T16:32:24.334Z,2.47
2024-05-09T16:37:29.414Z,2.50
2024-05-09T16:42:31.476Z,3.60
2024-05-09T16:47:33.536Z,3.20
2024-05-09T16:52:35.503Z,3.88
2024-05-09T16:57:37.426Z,2.42
2024-05-09T17:02:40.082Z,2.72
2024-05-09T17:07:41.994Z,3.92
2024-05-09T17:12:43.794Z,3.72
2024-05-09T17:17:45.624Z,4.50
2024-05-09T17:22:47.488Z,3.00
2024-05-09T17:27:49.328Z,4.22
2024-05-09T17:32:51.146Z,3.25
2024-05-09T17:37:52.991Z,3.70
2024-05-09T17:42:54.774Z,7.35
2024-05-09T17:47:56.904Z,3.17
2024-05-09T17:52:58.945Z,3.70
2024-05-09T17:58:01.069Z,6.28
2024-05-09T18:03:03.040Z,4.05
2024-05-09T18:08:08.544Z,9.35
2024-05-09T18:13:12.091Z,5.25
2024-05-09T18:18:14.282Z,3.92
2024-05-09T18:23:18.027Z,6.85
2024-05-09T18:28:21.118Z,3.78
2024-05-09T18:33:24.492Z,3.53
2024-05-09T18:38:26.994Z,5.47
2024-05-09T18:43:37.922Z,5.22
2024-05-09T18:48:44.071Z,4.32
2024-05-09T18:53:46.292Z,7.78
2024-05-09T18:58:48.077Z,5.55
2024-05-09T19:03:50.381Z,5.60
2024-05-09T19:08:52.321Z,7.60
2024-05-09T19:13:54.232Z,5.82
2024-05-09T19:18:56.914Z,7.63
2024-05-09T19:23:58.764Z,6.32
2024-05-09T19:29:00.513Z,10.88
2024-05-09T19:34:02.659Z,6.25
2024-05-09T19:39:04.474Z,6.93
2024-05-09T19:44:06.274Z,6.07
2024-05-09T19:49:08.309Z,5.18
2024-05-09T19:54:10.675Z,6.85
2024-05-09T19:59:12.972Z,6.47
2024-05-09T20:04:14.980Z,6.63
2024-05-09T20:09:17.451Z,8.52
2024-05-09T20:14:19.204Z,9.45
2024-05-09T20:19:21.313Z,6.90
2024-05-09T20:24:23.167Z,6.75
2024-05-09T20:29:25.022Z,8.80
2024-05-09T20:34:26.881Z,6.78
2024-05-09T20:39:28.688Z,7.10
2024-05-09T20:44:30.496Z,7.63
2024-05-09T20:49:32.395Z,7.57
2024-05-09T20:54:34.438Z,6.55
2024-05-09T20:59:37.815Z,6.43
2024-05-09T21:04:39.820Z,7.22
2024-05-09T21:09:41.770Z,5.70
2024-05-09T21:14:43.575Z,6.07
2024-05-09T21:19:45.533Z,6.28
2024-05-09T21:24:47.574Z,5.53
2024-05-09T21:29:49.384Z,7.32
2024-05-09T21:34:51.210Z,6.25
2024-05-09T21:39:53.026Z,6.03
2024-05-09T21:44:54.838Z,8.20
2024-05-09T21:49:56.720Z,6.45
2024-05-09T21:54:58.742Z,6.30
2024-05-09T22:00:00.636Z,6.18
2024-05-09T22:05:02.465Z,9.77
2024-05-09T22:10:08.039Z,9.65
2024-05-09T22:15:11.675Z,6.82
2024-05-09T22:20:21.831Z,6.20
2024-05-09T22:25:31.202Z,7.07
2024-05-09T22:30:37.802Z,7.40
2024-05-09T22:35:41.604Z,7.32
2024-05-09T22:40:48.286Z,8.45
2024-05-09T22:45:55.549Z,9.38
2024-05-09T22:50:57.558Z,8.27
2024-05-09T22:55:59.328Z,8.93
2024-05-09T23:01:01.220Z,7.43
2024-05-09T23:06:06.140Z,8.10
2024-05-09T23:11:08.024Z,7.28
2024-05-09T23:16:10.179Z,8.60
2024-05-09T23:21:12.019Z,8.02
2024-05-09T23:26:13.776Z,7.95
2024-05-09T23:31:15.618Z,7.90
2024-05-09T23:36:17.390Z,8.20
2024-05-09T23:41:19.183Z,8.15
2024-05-09T23:46:21.042Z,8.52
2024-05-09T23:51:23.009Z,10.52
2024-05-09T23:56:24.784Z,8.10
